Airfield :
LOGIN :

Register | Disclaimer

   EN    FR    IT 

 










Legend :    VFR   Marginal VFR   IFR   Intensive IFR   Very Intensive IFR
Visi :
Ceiling :
>= 8 km
>= 3000ft
5 to 8 km
1000 to 3000 ft
1500m to 5 km
500 to 1000 ft
800 to 1500m
200 to 500 ft
< 800m
< 200 ft
Symbols :   Thunderstorms  Fog  Heavy snow  Heavy precipitations  Wind > 20 kt
SIGMETs :     Misc.  Thunderstorms  Icing  Turbulence  Mountain Waves  Volcanic Ashes






- Airport Elevation : 2356 ft


LZTT - Poprad Tatry

CURRENT METAR :
  • 291130Z VRB03KT 9999 SCT066 30/14 Q1018 NOSIG

EXPIRED METARs :
  • 291100Z VRB03KT 9999 SCT060 29/14 Q1018 NOSIG
  • 291030Z VRB04KT 9999 FEW053 29/14 Q1018 NOSIG
  • 291000Z 15005KT 110V210 9999 FEW053 29/15 Q1018 NOSIG
  • 290930Z VRB03KT 9999 FEW046 29/16 Q1018 NOSIG
  • 290900Z VRB03KT 9999 FEW046 28/16 Q1018 NOSIG

TAF TAF LZTT
Valid from the 29 at 12:00 until the 30 at 12:00 UTC


291115Z 2912/3012 26004KT 9999 FEW060
TEMPO 2912/2918 15010KT SHRA SCT055CB
PROB40
TEMPO 2912/2915 TSRA



MET'MAP, your aeronautical weather chart ! - Copyright ORBIFLY December 2007 - Disclaimer

ORBIFLY MET'MAP TEAM :

Programming & Development : Alexandra Zaïnal
Original concept : Baudouin d'Aumeries
Technical & hardware support : Manuel Goepfert
Assistance : Marc-Olivier Méhu




SOURCES & CREDITS :

   NOAA